• Join FlightAware (Why Join?)
  • Login
  • US Flag 
01:35PM EST


 

Airport Tracker/Info


-or-


 

Live Flight TrackerFlight Track Log ✈ TAM8008 ✈ 26-Sep-2013 ✈ SBGR / GRU - SABE / AEP

Flight Track Log - Related Links

Times and Time Zones

All times are in EDT time to prevent confusion due to time zone crossing. See the TAM8008 flight status page for this flight to view local times or setup timezone preferences in your user account.

Time Position Orientation Groundspeed Altitude Reporting Facility
EDT Latitude Longitude Course Direction KTS MPH feet Rate Location/Type
06:03PM -23.4330 -46.4780 90° East 88 101  Level FlightAware
06:04PM -23.4290 -46.4640 73° East 165 190 4,500 Level FlightAware
06:04PM -23.4250 -46.4480 75° East 165 190 3,000 5,400 Climbing FlightAware
06:04PM -23.4210 -46.4320 75° East 160 184 3,700 1,920 Climbing FlightAware
06:04PM -23.4200 -46.4280 75° East 163 188 3,800 1,740 Climbing FlightAware
06:05PM -23.4260 -46.4140 115° Southeast 151 174 4,400 1,740 Climbing FlightAware
06:05PM -23.4330 -46.4110 159° South 151 174 4,700 1,080 Climbing FlightAware
06:05PM -23.4540 -46.4180 197° South 187 215 5,100 840 Climbing FlightAware
06:05PM -23.4660 -46.4290 220° Southwest 211 243 5,300 1,500 Climbing FlightAware
06:06PM -23.4790 -46.4460 230° Southwest 224 258 6,000 2,100 Climbing FlightAware
06:06PM -23.4910 -46.4640 234° Southwest 229 264 6,700 1,620 Climbing FlightAware
06:07PM -23.5080 -46.4900 235° Southwest 269 310 7,200 1,860 Climbing FlightAware
06:07PM -23.5290 -46.5180 231° Southwest 275 316 8,300 2,640 Climbing FlightAware
06:07PM -23.5440 -46.5400 233° Southwest 283 326 9,200 2,460 Climbing FlightAware
06:08PM -23.5740 -46.5800 231° Southwest 291 335 10,600 1,680 Climbing FlightAware
06:08PM -23.6050 -46.6230 232° Southwest 326 375 11,200 1,620 Climbing FlightAware
06:09PM -23.6410 -46.6680 229° Southwest 333 383 12,500 2,280 Climbing FlightAware
06:10PM -23.6820 -46.7070 221° Southwest 333 383 13,900 2,400 Climbing FlightAware
06:10PM -23.7230 -46.7470 222° Southwest 331 381 15,300 1,800 Climbing FlightAware
06:11PM -23.7570 -46.7790 221° Southwest 231 266 16,200 2,040 Climbing FlightAware
06:11PM -23.8120 -46.8330 222° Southwest 345 397 17,900 2,100 Climbing FlightAware
06:12PM -23.8610 -46.8790 221° Southwest 356 410 18,800 1,500 Climbing FlightAware
06:13PM -23.9010 -46.9180 222° Southwest 361 415 19,700 1,860 Climbing FlightAware
06:13PM -23.9480 -46.9640 222° Southwest 360 414 21,000 1,860 Climbing FlightAware
06:14PM -23.9930 -47.0080 222° Southwest 360 414 22,000 1,620 Climbing FlightAware
06:14PM -24.0340 -47.0470 221° Southwest 360 414 22,900 1,620 Climbing FlightAware
06:15PM -24.0800 -47.0920 222° Southwest 361 415 23,900 1,500 Climbing FlightAware
06:16PM -24.1240 -47.1350 222° Southwest 365 420 24,700 1,200 Climbing FlightAware
06:16PM -24.1650 -47.1750 222° Southwest 370 426 25,300 1,140 Climbing FlightAware
06:17PM -24.2150 -47.2230 221° Southwest 373 429 26,100 1,140 Climbing FlightAware
06:17PM -24.2570 -47.2640 222° Southwest 376 433 26,700 1,140 Climbing FlightAware
06:18PM -24.3070 -47.3140 222° Southwest 378 435 27,500 1,080 Climbing FlightAware
06:19PM -24.3450 -47.3510 222° Southwest 381 438 28,000 1,140 Climbing FlightAware
06:19PM -24.3900 -47.3950 222° Southwest 378 435 28,700 1,020 Climbing FlightAware
06:20PM -24.4370 -47.4410 222° Southwest 387 445 29,200 900 Climbing FlightAware
06:20PM -24.4850 -47.4880 222° Southwest 390 449 29,800 1,020 Climbing FlightAware
06:21PM -24.5360 -47.5380 222° Southwest 389 448 30,500 1,140 Climbing FlightAware
06:21PM -24.5860 -47.5870 222° Southwest 386 444 31,200 1,200 Climbing FlightAware
06:22PM -24.6370 -47.6370 222° Southwest 378 435 32,000 1,080 Climbing FlightAware
06:23PM -24.6840 -47.6830 222° Southwest 376 433 32,600 1,020 Climbing FlightAware
06:23PM -24.7300 -47.7290 222° Southwest 372 428 33,300 1,080 Climbing FlightAware
06:24PM -24.7680 -47.7670 222° Southwest 372 428 33,800 960 Climbing FlightAware
06:24PM -24.8210 -47.8190 222° Southwest 372 428 34,400 780 Climbing FlightAware
06:25PM -24.8660 -47.8630 222° Southwest 372 428 34,800 660 Climbing FlightAware
06:26PM -24.9110 -47.9080 222° Southwest 372 428 35,200 660 Climbing FlightAware
06:26PM -24.9580 -47.9540 222° Southwest 374 430 35,600 660 Climbing FlightAware
06:27PM -25.0030 -47.9990 222° Southwest 372 428 36,000 300 Climbing FlightAware
06:27PM -25.0490 -48.0440 222° Southwest 370 426 36,000  Level FlightAware
06:28PM -25.0930 -48.0880 222° Southwest 372 428 36,000  Level FlightAware
06:29PM -25.1390 -48.1340 222° Southwest 372 428 36,000  Level FlightAware
06:29PM -25.1850 -48.1800 222° Southwest 371 427 36,000  Level FlightAware
06:30PM -25.2310 -48.2260 222° Southwest 375 432 36,000  Level FlightAware
06:30PM -25.2770 -48.2720 222° Southwest 375 432 36,000  Level FlightAware
06:31PM -25.3150 -48.3100 222° Southwest 375 432 36,000  Level FlightAware
06:32PM -25.3680 -48.3640 223° Southwest 375 432 36,000  Level FlightAware
06:32PM -25.4130 -48.4080 221° Southwest 371 427 36,000  Level FlightAware
06:33PM -25.4560 -48.4510 222° Southwest 377 434 36,000  Level FlightAware
06:33PM -25.5040 -48.5000 223° Southwest 377 434 36,000  Level FlightAware
06:34PM -25.5470 -48.5420 221° Southwest 380 437 36,000  Level FlightAware
06:34PM -25.5970 -48.5860 218° Southwest 380 437 36,000  Level FlightAware
06:35PM -25.6440 -48.6270 218° Southwest 378 435 36,000  Level FlightAware
06:36PM -25.6910 -48.6690 219° Southwest 377 434 36,000  Level FlightAware
06:36PM -25.7440 -48.7160 219° Southwest 377 434 36,000  Level FlightAware
06:37PM -25.7860 -48.7540 219° Southwest 377 434 36,000  Level FlightAware
06:37PM -25.8330 -48.7950 218° Southwest 377 434 36,000  Level FlightAware
06:38PM -25.8830 -48.8400 219° Southwest 375 432 36,000  Level FlightAware
06:39PM -25.9380 -48.8890 219° Southwest 373 429 36,000  Level FlightAware
06:39PM -25.9970 -48.9420 219° Southwest 373 429 36,000  Level FlightAware
06:40PM -26.0350 -48.9760 219° Southwest 373 429 36,000  Level FlightAware
06:41PM -26.0880 -49.0240 219° Southwest 372 428 36,000  Level FlightAware
06:41PM -26.1400 -49.0700 218° Southwest 372 428 36,000  Level FlightAware
06:42PM -26.1850 -49.1110 219° Southwest 371 427 36,000  Level FlightAware
06:42PM -26.2350 -49.1560 219° Southwest 371 427 36,000  Level FlightAware
06:43PM -26.2850 -49.2010 219° Southwest 369 425 36,000  Level FlightAware
06:44PM -26.3330 -49.2440 219° Southwest 370 426 36,000  Level FlightAware
06:44PM -26.3820 -49.2880 219° Southwest 369 425 36,000  Level FlightAware
06:45PM -26.4230 -49.3260 220° Southwest 370 426 36,000  Level FlightAware
06:45PM -26.4710 -49.3690 219° Southwest 370 426 36,000  Level FlightAware
06:46PM -26.5190 -49.4120 219° Southwest 370 426 36,000  Level FlightAware
06:46PM -26.5640 -49.4530 219° Southwest 369 425 36,000  Level FlightAware
06:47PM -26.6110 -49.4950 219° Southwest 369 425 36,000  Level FlightAware
06:48PM -26.6570 -49.5380 220° Southwest 368 423 36,000  Level FlightAware
06:48PM -26.7040 -49.5800 219° Southwest 367 422 36,000  Level FlightAware
06:49PM -26.7510 -49.6230 219° Southwest 367 422 36,000  Level FlightAware
06:49PM -26.7960 -49.6640 219° Southwest 367 422 36,000  Level FlightAware
06:50PM -26.8420 -49.7060 219° Southwest 368 423 36,000  Level FlightAware
06:51PM -26.8890 -49.7490 219° Southwest 370 426 36,000  Level FlightAware
06:51PM -26.9320 -49.7890 220° Southwest 372 428 36,000  Level FlightAware
06:52PM -26.9810 -49.8330 219° Southwest 375 432 36,000  Level FlightAware
06:52PM -27.0290 -49.8770 219° Southwest 377 434 36,000  Level FlightAware
06:53PM -27.0770 -49.9210 219° Southwest 377 434 36,000  Level FlightAware
06:54PM -27.1290 -49.9690 219° Southwest 375 432 36,000  Level FlightAware
06:54PM -27.1780 -50.0140 219° Southwest 374 430 36,000  Level FlightAware
06:55PM -27.2290 -50.0610 219° Southwest 372 428 36,000  Level FlightAware
06:55PM -27.2710 -50.0990 219° Southwest 372 428 36,000  Level FlightAware
06:56PM -27.3170 -50.1420 220° Southwest 371 427 36,000  Level FlightAware
06:56PM -27.3660 -50.1870 219° Southwest 371 427 36,000  Level FlightAware
06:57PM -27.4120 -50.2300 220° Southwest 372 428 36,000  Level FlightAware
06:58PM -27.4620 -50.2760 219° Southwest 373 429 36,000  Level FlightAware
06:58PM -27.5130 -50.3230 219° Southwest 373 429 36,000  Level FlightAware
06:59PM -27.5720 -50.3790 220° Southwest 372 428 36,000  Level FlightAware
07:00PM -27.6210 -50.4240 219° Southwest 371 427 36,000  Level FlightAware
07:00PM -27.6640 -50.4640 219° Southwest 370 426 36,000  Level FlightAware
07:01PM -27.7120 -50.5080 219° Southwest 368 423 36,000  Level FlightAware
07:01PM -27.7480 -50.5420 220° Southwest 367 422 36,000  Level FlightAware
07:02PM -27.7980 -50.5880 219° Southwest 366 421 36,000  Level FlightAware
07:02PM -27.8450 -50.6330 220° Southwest 365 420 36,000  Level FlightAware
07:03PM -27.8850 -50.6700 219° Southwest 363 418 36,000  Level FlightAware
07:04PM -27.9340 -50.7160 220° Southwest 360 414 36,000  Level FlightAware
07:04PM -27.9840 -50.7630 220° Southwest 361 415 36,000  Level FlightAware
07:05PM -28.0330 -50.8090 220° Southwest 361 415 36,000  Level FlightAware
07:05PM -28.0770 -50.8500 219° Southwest 360 414 36,000  Level FlightAware
07:06PM -28.1230 -50.8930 219° Southwest 359 413 36,000  Level FlightAware
07:07PM -28.1670 -50.9350 220° Southwest 359 413 36,000  Level FlightAware
07:07PM -28.2120 -50.9770 219° Southwest 356 410 36,000  Level FlightAware
07:08PM -28.2530 -51.0170 221° Southwest 355 409 36,000  Level FlightAware
07:08PM -28.3010 -51.0610 219° Southwest 357 411 36,000  Level FlightAware
07:09PM -28.3440 -51.1020 220° Southwest 357 411 36,000  Level FlightAware
07:10PM -28.3900 -51.1460 220° Southwest 358 412 36,000  Level FlightAware
07:10PM -28.4330 -51.1870 220° Southwest 357 411 36,000  Level FlightAware
07:11PM -28.4790 -51.2300 219° Southwest 356 410 36,000  Level FlightAware
07:11PM -28.5310 -51.2800 220° Southwest 356 410 36,000  Level FlightAware
07:12PM -28.5750 -51.3220 220° Southwest 355 409 36,000  Level FlightAware
07:13PM -28.6180 -51.3630 220° Southwest 356 410 36,000  Level FlightAware
07:13PM -28.6610 -51.4040 220° Southwest 356 410 36,000  Level FlightAware
07:14PM -28.7050 -51.4460 220° Southwest 354 407 36,000  Level FlightAware
07:14PM -28.7540 -51.4930 220° Southwest 354 407 36,000  Level FlightAware
07:15PM -28.7940 -51.5310 220° Southwest 354 407 36,000  Level FlightAware
07:16PM -28.8390 -51.5750 221° Southwest 353 406 36,000  Level FlightAware
07:16PM -28.8840 -51.6180 220° Southwest 353 406 36,000  Level FlightAware
07:17PM -28.9290 -51.6610 220° Southwest 352 405 36,000  Level FlightAware
07:17PM -28.9690 -51.6990 220° Southwest 352 405 36,000  Level FlightAware
07:18PM -29.0140 -51.7430 221° Southwest 352 405 36,000  Level FlightAware
07:18PM -29.0580 -51.7850 220° Southwest 351 404 36,000  Level FlightAware
07:19PM -29.1020 -51.8280 220° Southwest 351 404 36,000  Level FlightAware
07:20PM -29.1380 -51.8620 220° Southwest 351 404 36,000  Level FlightAware
07:20PM -29.1850 -51.9080 221° Southwest 351 404 36,000  Level FlightAware
07:21PM -29.2310 -51.9530 220° Southwest 350 403 36,000  Level FlightAware
07:21PM -29.2720 -51.9920 220° Southwest 351 404 36,000  Level FlightAware
07:22PM -29.3170 -52.0360 220° Southwest 351 404 36,000  Level FlightAware
07:23PM -29.3610 -52.0790 220° Southwest 351 404 36,000  Level FlightAware
07:23PM -29.4010 -52.1180 220° Southwest 351 404 36,000  Level FlightAware
07:24PM -29.4440 -52.1590 220° Southwest 353 406 36,000  Level FlightAware
07:24PM -29.4930 -52.2070 220° Southwest 354 407 36,000  Level FlightAware
07:25PM -29.5320 -52.2460 221° Southwest 354 407 36,000  Level FlightAware
07:25PM -29.5780 -52.2910 220° Southwest 353 406 36,000  Level FlightAware
07:26PM -29.6180 -52.3300 220° Southwest 354 407 36,000  Level FlightAware
07:27PM -29.6630 -52.3740 220° Southwest 353 406 36,000  Level FlightAware
07:27PM -29.7060 -52.4160 220° Southwest 353 406 36,000  Level FlightAware
07:28PM -29.7500 -52.4590 220° Southwest 352 405 36,000  Level FlightAware
07:28PM -29.7990 -52.5080 221° Southwest 351 404 36,000  Level FlightAware
07:29PM -29.8420 -52.5500 220° Southwest 351 404 36,000  Level FlightAware
07:30PM -29.8970 -52.6050 221° Southwest 350 403 36,000  Level FlightAware
07:30PM -29.9410 -52.6470 220° Southwest 350 403 36,000  Level FlightAware
07:31PM -29.9830 -52.6890 221° Southwest 351 404 36,000  Level FlightAware
07:31PM -30.0200 -52.7260 221° Southwest 351 404 36,000  Level FlightAware
07:32PM -30.0690 -52.7740 220° Southwest 352 405 36,000  Level FlightAware
07:33PM -30.1130 -52.8180 221° Southwest 352 405 36,000  Level FlightAware
07:33PM -30.1620 -52.8670 221° Southwest 352 405 36,000  Level FlightAware
07:34PM -30.2050 -52.9100 221° Southwest 352 405 36,000  Level FlightAware
07:35PM -30.2470 -52.9510 220° Southwest 352 405 36,000  Level FlightAware
07:35PM -30.2910 -52.9950 221° Southwest 351 404 36,000  Level FlightAware
07:36PM -30.3400 -53.0450 221° Southwest 351 404 36,000  Level FlightAware
07:36PM -30.3830 -53.0870 220° Southwest 351 404 36,000  Level FlightAware
07:37PM -30.4320 -53.1360 221° Southwest 352 405 36,000  Level FlightAware
07:38PM -30.4690 -53.1740 222° Southwest 351 404 36,000  Level FlightAware
07:38PM -30.5130 -53.2170 220° Southwest 352 405 36,000  Level FlightAware
07:39PM -30.5560 -53.2610 221° Southwest 352 405 36,000  Level FlightAware
07:39PM -30.6040 -53.3090 221° Southwest 352 405 36,000  Level FlightAware
07:40PM -30.6470 -53.3520 221° Southwest 353 406 36,000  Level FlightAware
07:40PM -30.6840 -53.3900 221° Southwest 353 406 36,000  Level FlightAware
07:41PM -30.7270 -53.4330 221° Southwest 353 406 36,000  Level FlightAware
07:42PM -30.7770 -53.4840 221° Southwest 353 406 36,000  Level FlightAware
07:42PM -30.8190 -53.5260 221° Southwest 354 407 36,000  Level FlightAware
07:43PM -30.8570 -53.5640 221° Southwest 354 407 36,000  Level FlightAware
07:43PM -30.9000 -53.6090 222° Southwest 356 410 36,000  Level FlightAware
07:44PM -30.9440 -53.6530 221° Southwest 357 411 36,000  Level FlightAware
07:45PM -30.9940 -53.7030 221° Southwest 358 412 36,000  Level FlightAware
07:45PM -31.0360 -53.7460 221° Southwest 356 410 36,000  Level FlightAware
07:46PM -31.0750 -53.7860 221° Southwest 357 411 36,000  Level FlightAware
07:46PM -31.1180 -53.8300 221° Southwest 356 410 36,000  Level FlightAware
07:47PM -31.1680 -53.8810 221° Southwest 357 411 36,000  Level FlightAware
07:47PM -31.2010 -53.9150 221° Southwest 357 411 36,000  Level FlightAware
07:48PM -31.2580 -53.9730 221° Southwest 359 413 36,000  Level FlightAware
07:49PM -31.2980 -54.0140 221° Southwest 362 417 36,000  Level FlightAware
07:49PM -31.3470 -54.0640 221° Southwest 363 418 36,000  Level FlightAware
07:50PM -31.3980 -54.1170 222° Southwest 361 415 36,000  Level FlightAware
07:51PM -31.4370 -54.1640 226° Southwest 362 417 36,000  Level FlightAware
07:51PM -31.4810 -54.2150 225° Southwest 362 417 36,000  Level FlightAware
07:52PM -31.5180 -54.2590 225° Southwest 362 417 36,000  Level FlightAware
07:52PM -31.5610 -54.3100 225° Southwest 362 417 36,000  Level FlightAware
07:53PM -31.5990 -54.3540 225° Southwest 361 415 36,000  Level FlightAware
07:54PM -31.6580 -54.4230 225° Southwest 361 415 36,000  Level FlightAware
07:54PM -31.6940 -54.4660 225° Southwest 361 415 36,000  Level FlightAware
07:55PM -31.7300 -54.5080 225° Southwest 361 415 36,000  Level FlightAware
07:56PM -31.7660 -54.5510 225° Southwest 361 415 36,000  Level FlightAware
07:56PM -31.8030 -54.5950 225° Southwest 361 415 36,000  Level FlightAware
07:57PM -31.8410 -54.6390 225° Southwest 361 415 36,000  Level FlightAware
07:57PM -31.9190 -54.7350 226° Southwest 36,000  Level FlightAware
08:00PM -32.0639 -54.9277 228° Southwest  Level Estimated
08:01PM -32.1312 -55.0175 228° Southwest  Level Estimated
08:02PM -32.1984 -55.1075 229° Southwest  Level Estimated
08:03PM -32.2656 -55.1976 229° Southwest  Level Estimated
08:04PM -32.3327 -55.2878 229° Southwest  Level Estimated
08:05PM -32.3998 -55.3782 229° Southwest  Level Estimated
08:06PM -32.4668 -55.4687 229° Southwest  Level Estimated
08:07PM -32.5337 -55.5593 229° Southwest  Level Estimated
08:08PM -32.6005 -55.6501 229° Southwest  Level Estimated
08:09PM -32.6673 -55.7410 229° Southwest  Level Estimated
08:10PM -32.7340 -55.8320 229° Southwest  Level Estimated
08:11PM -32.8007 -55.9232 229° Southwest  Level Estimated
08:12PM -32.8673 -56.0145 229° Southwest  Level Estimated
08:13PM -32.9338 -56.1059 229° Southwest  Level Estimated
08:14PM -33.0002 -56.1975 229° Southwest  Level Estimated
08:15PM -33.0666 -56.2892 229° Southwest  Level Estimated
08:16PM -33.1329 -56.3811 229° Southwest  Level Estimated
08:17PM -33.1992 -56.4731 229° Southwest  Level Estimated
08:18PM -33.2654 -56.5653 229° Southwest  Level Estimated
08:19PM -33.3315 -56.6575 229° Southwest  Level Estimated
08:20PM -33.3975 -56.7500 229° Southwest  Level Estimated
08:21PM -33.4635 -56.8425 229° Southwest  Level Estimated
08:22PM -33.5294 -56.9352 230° Southwest  Level Estimated
08:23PM -33.5953 -57.0280 230° Southwest  Level Estimated
08:23PM -33.6970 -56.9710 230° Southwest 364 419 36,000  Level FlightAware
08:24PM -33.7330 -57.0210 229° Southwest 363 418 36,000  Level FlightAware
08:24PM -33.7860 -57.0970 230° Southwest 364 419 36,000  Level FlightAware
08:25PM -33.8220 -57.1500 231° Southwest 360 414 36,000 -720 Level FlightAware
08:25PM -33.8430 -57.2040 245° Southwest 359 413 35,300 -2,400 Descending FlightAware
08:26PM -33.8660 -57.2750 249° West 367 422 33,400 -3,840 Descending FlightAware
08:27PM -33.9000 -57.3720 247° West 372 428 30,500 -4,500 Descending FlightAware
08:27PM -33.9220 -57.4360 247° West 391 450 28,000 -4,680 Descending FlightAware
08:28PM -33.9490 -57.5170 248° West 408 470 25,000 -4,740 Descending FlightAware
08:28PM -33.9750 -57.5950 248° West 427 491 22,100 -3,780 Descending FlightAware
08:29PM -34.0010 -57.6710 248° West 410 472 20,500 -3,300 Descending FlightAware
08:30PM -34.0260 -57.7450 248° West 409 471 18,300 -2,580 Descending FlightAware
08:30PM -34.0470 -57.8090 248° West 381 438 17,700 -1,140 Descending FlightAware
08:31PM -34.0700 -57.8760 247° West 351 404 17,000 -1,080 Descending FlightAware
08:31PM -34.0920 -57.9430 248° West 322 371 16,400 -1,440 Descending FlightAware
08:32PM -34.1090 -57.9950 248° West 321 369 15,400 -2,220 Descending FlightAware
08:33PM -34.1300 -58.0560 247° West 328 377 13,900 -2,100 Descending FlightAware
08:33PM -34.1500 -58.1170 248° West 324 373 12,900 -2,340 Descending FlightAware
08:34PM -34.1680 -58.1720 248° West 338 389 11,300 -2,340 Descending FlightAware
08:34PM -34.1880 -58.2350 249° West 331 381 10,300 -1,260 Descending FlightAware
08:35PM -34.2020 -58.2880 252° West 309 356 9,900 -720 Descending FlightAware
08:35PM -34.2070 -58.3060 251° West 299 344 9,800 -1,080 Descending FlightAware
08:35PM -34.2160 -58.3430 254° West 289 333 9,300 -1,140 Descending FlightAware
08:36PM -34.2240 -58.3740 253° West 280 322 9,000 -1,080 Descending FlightAware
08:36PM -34.2320 -58.4030 252° West 271 312 8,600 -1,260 Descending FlightAware
08:36PM -34.2390 -58.4310 253° West 265 305 8,200 -1,560 Descending FlightAware
08:37PM -34.2480 -58.4650 252° West 263 303 7,500 -2,100 Descending FlightAware
08:37PM -34.2550 -58.4940 254° West 276 318 6,700 -1,800 Descending FlightAware
08:37PM -34.2630 -58.5240 252° West 274 315 6,300 -1,080 Descending FlightAware
08:38PM -34.2710 -58.5520 251° West 272 313 6,000 -420 Descending FlightAware
08:38PM -34.2800 -58.5880 253° West 278 320 6,000 -180 Level FlightAware
08:39PM -34.2870 -58.6170 254° West 272 313 5,900 -600 Descending FlightAware
08:39PM -34.2950 -58.6460 252° West 265 305 5,600 -1,680 Descending FlightAware
08:39PM -34.3020 -58.6750 254° West 277 319 4,800 -2,460 Descending FlightAware
08:39PM -34.3060 -58.6850 244° Southwest 281 323 4,500 -1,920 Descending FlightAware
08:39PM -34.3120 -58.6950 234° Southwest 284 327 4,300 -1,500 Descending FlightAware
08:40PM -34.3200 -58.7030 220° Southwest 285 328 4,100 -1,500 Descending FlightAware
08:40PM -34.3250 -58.7060 206° Southwest 285 328 4,000 -1,500 Descending FlightAware
08:40PM -34.3300 -58.7080 198° South 283 326 3,900 -960 Descending FlightAware
08:40PM -34.3410 -58.7100 189° South 276 318 3,800 -180 Descending FlightAware
08:40PM -34.3700 -58.6960 158° South 274 315 3,800  Level FlightAware
08:40PM -34.3750 -58.6900 135° Southeast 271 312 3,800 -900 Level FlightAware
08:41PM -34.3930 -58.6640 130° Southeast 269 310 3,400 -1,020 Descending FlightAware
08:41PM -34.4100 -58.6410 132° Southeast 260 299 3,100 -780 Descending FlightAware
08:41PM -34.4250 -58.6200 131° Southeast 250 288 2,900 -600 Descending FlightAware
08:42PM -34.4440 -58.6020 142° Southeast 238 274 2,700 -600 Descending FlightAware
08:42PM -34.4630 -58.5820 139° Southeast 223 257 2,500 -600 Descending FlightAware
08:43PM -34.4760 -58.5640 131° Southeast 208 239 2,300 -420 Descending FlightAware
08:43PM -34.4880 -58.5440 126° Southeast 196 226 2,200 -780 Descending FlightAware
08:43PM -34.4970 -58.5270 123° Southeast 184 212 1,800 -1,080 Descending FlightAware
08:44PM -34.5070 -58.5100 126° Southeast 169 194 1,500 -900 Descending FlightAware
08:44PM -34.5150 -58.4960 125° Southeast 146 168 1,200 -840 Descending FlightAware
08:44PM -34.5200 -58.4860 121° Southeast 131 151 1,000 -720 Descending FlightAware
08:44PM -34.5270 -58.4740 125° Southeast 123 142 800 -600 Descending FlightAware
08:45PM -34.5330 -58.4620 121° Southeast 120 138 600 -720 Descending FlightAware
08:45PM -34.5410 -58.4490 127° Southeast 115 132 300 -720 Descending FlightAware
08:46PM -34.5460 -58.4390 121° Southeast 114 131 100 -300 Descending FlightAware
08:46PM -34.5540 -58.4250 125° Southeast 116 133 100  Level FlightAware
08:49PM -34.5592 -58.4156 124° Southeast  Level Estimated
08:50PM -34.5592 -58.4156 33° Northeast  Level Estimated